South Chittenden, Vermont
Current Conditions -  °F | °C
As of 9:15 AM on Monday 26 Jan 2015 (Local Time) from KRUT Reporting Station
Clear Clear  
Wind Chill:   Ceiling: Unl
Heat Index:   Visibility: 10mi
Dew Point: -2°   Wind: 3mph
Humidity: 85%   Direction: 10°N
Pressure: 30.08"   Gusts: NA
Location:  43.6369°N, 72.9375°W
Report Text: KRUT 261415Z 01003KT 10SM CLR M17/M19 A3008 RMK AO1
Loading
Personal Weather Stations






























Interactive Weather Map New forecast layout! Learn more

10-Day Weather Forecast

Advertisements
Track Severe Weather on mobile